Wolf Point, MT

1:34 AM MDT on August 31, 2015 (GMT -0600)
Clayton | | Change Station
CLOSE
Current Station
Airport
Location: Wolf Point,
Elevation: 1985 ft
Nearby Weather Stations

Elev 1985 ft 48.09 °N, 105.58 °W | Updated 41 minutes ago

Overcast
Overcast
65 °F
Feels Like 65 °F
N
18
Wind Variable Wind from WNW

Today
High -- | Low -- °F
--% Chance of Precip.
Yesterday
High -- | Low -- °F
Precip. -- in
6:18 AM 7:45 PM
Waning Gibbous, 96% visible
Pressure 29.74 in
Visibility 10.0 miles
Clouds Few 1900 ft
Overcast 8000 ft
Dew Point 58 °F
Humidity 78%
Rainfall 0.00 in
Snow Depth Not available.
UV 0 out of 12
Pollen 9.10 out of 12
Air Quality Not available.
Flu Activity Not available.
METAR KOLF 310653Z AUTO 29016KT 10SM FEW019 OVC080 18/14 A2977 RMK AO2 PK WND 28027/0626 WSHFT 0618 RAB30E50 SLP070 P0000 T01830144 403110161
Pressure 29.74 in
Visibility 10.0 miles
Clouds Few 1900 ft
Overcast 8000 ft
Dew Point 58 °F
Humidity 78%
Rainfall 0.00 in
Snow Depth Not available.
UV 0 out of 12
Pollen 9.10 out of 12
Air Quality Not available.
Flu Activity Not available.
METAR KOLF 310653Z AUTO 29016KT 10SM FEW019 OVC080 18/14 A2977 RMK AO2 PK WND 28027/0626 WSHFT 0618 RAB30E50 SLP070 P0000 T01830144 403110161

10-Day Weather Forecast

×

Almanac

Astronomy

Aug. 31, 2015 Rise Set
Actual Time
Civil Twilight
Nautical Twilight
Astronomical Twilight
Moon
Length of Visible Light
Length of Day
Tomorrow will be .
, % of the Moon is Illuminated

Today's Extremes

State Highs State Lows

Community

WunderPhotos

Upload Photos

1,851,220 photos uploaded!

WunderBlogs® & News

Nearby

Air Quality

  Air Quality AQ Index Pollutant
Not available.

Snow Depth

Station Depth Elevation

Earthquake Activity

City Distance Mag. Time & Date
Minimum magnitude displayed is 2.5.

Coastal Water Temperatures

Place Temperature

Stations

Nearby Weather Stations

Station Location Temp. Windchill Dew Point Humidity Wind Precip. Elev Updated Type